sensor_id;sensor_type;location;lat;lon;timestamp;temperature;humidity
58983;DHT22;44771;49.982;8.560;2022-09-09T00:04:34;15.60;99.90
58983;DHT22;44771;49.982;8.560;2022-09-09T00:09:41;15.60;99.90
58983;DHT22;44771;49.982;8.560;2022-09-09T00:14:51;15.60;99.90
58983;DHT22;44771;49.982;8.560;2022-09-09T00:20:01;15.50;99.90
58983;DHT22;44771;49.982;8.560;2022-09-09T00:25:11;15.60;99.90
58983;DHT22;44771;49.982;8.560;2022-09-09T00:30:16;15.50;99.90
58983;DHT22;44771;49.982;8.560;2022-09-09T00:35:23;15.50;99.90
58983;DHT22;44771;49.982;8.560;2022-09-09T00:40:31;15.50;99.90
58983;DHT22;44771;49.982;8.560;2022-09-09T00:45:54;15.40;99.90
58983;DHT22;44771;49.982;8.560;2022-09-09T00:51:03;15.30;99.90
58983;DHT22;44771;49.982;8.560;2022-09-09T00:56:12;15.20;99.90
58983;DHT22;44771;49.982;8.560;2022-09-09T01:01:14;15.20;99.90
58983;DHT22;44771;49.982;8.560;2022-09-09T01:06:22;15.20;99.90
58983;DHT22;44771;49.982;8.560;2022-09-09T01:11:33;15.20;99.90
58983;DHT22;44771;49.982;8.560;2022-09-09T01:16:38;15.10;99.90
58983;DHT22;44771;49.982;8.560;2022-09-09T01:21:49;15.20;99.90
58983;DHT22;44771;49.982;8.560;2022-09-09T01:26:56;15.10;99.90
58983;DHT22;44771;49.982;8.560;2022-09-09T01:32:00;15.00;99.90
58983;DHT22;44771;49.982;8.560;2022-09-09T01:37:04;14.90;99.90
58983;DHT22;44771;49.982;8.560;2022-09-09T01:42:11;14.90;99.90
58983;DHT22;44771;49.982;8.560;2022-09-09T01:47:14;14.90;99.90
58983;DHT22;44771;49.982;8.560;2022-09-09T01:52:17;14.80;99.90
58983;DHT22;44771;49.982;8.560;2022-09-09T01:57:23;14.80;99.90
58983;DHT22;44771;49.982;8.560;2022-09-09T02:02:32;14.80;99.90
58983;DHT22;44771;49.982;8.560;2022-09-09T02:07:39;14.70;99.90
58983;DHT22;44771;49.982;8.560;2022-09-09T02:12:46;14.70;99.90
58983;DHT22;44771;49.982;8.560;2022-09-09T02:17:50;14.70;99.90
58983;DHT22;44771;49.982;8.560;2022-09-09T02:22:59;14.70;99.90
58983;DHT22;44771;49.982;8.560;2022-09-09T02:28:05;14.60;99.90
58983;DHT22;44771;49.982;8.560;2022-09-09T02:33:09;14.60;99.90
58983;DHT22;44771;49.982;8.560;2022-09-09T02:38:13;14.60;99.90
58983;DHT22;44771;49.982;8.560;2022-09-09T02:43:17;14.70;99.90
58983;DHT22;44771;49.982;8.560;2022-09-09T02:48:23;14.70;99.90
58983;DHT22;44771;49.982;8.560;2022-09-09T02:53:34;14.80;99.90
58983;DHT22;44771;49.982;8.560;2022-09-09T02:58:39;14.80;99.90
58983;DHT22;44771;49.982;8.560;2022-09-09T03:03:41;14.80;99.90
58983;DHT22;44771;49.982;8.560;2022-09-09T03:08:43;14.80;99.90
58983;DHT22;44771;49.982;8.560;2022-09-09T03:13:51;14.80;99.90
58983;DHT22;44771;49.982;8.560;2022-09-09T03:18:53;14.70;99.90
58983;DHT22;44771;49.982;8.560;2022-09-09T03:23:55;14.60;99.90
58983;DHT22;44771;49.982;8.560;2022-09-09T03:28:58;14.50;99.90
58983;DHT22;44771;49.982;8.560;2022-09-09T03:34:00;14.40;99.90
58983;DHT22;44771;49.982;8.560;2022-09-09T03:39:02;14.40;99.90
58983;DHT22;44771;49.982;8.560;2022-09-09T03:44:05;14.30;99.90
58983;DHT22;44771;49.982;8.560;2022-09-09T03:49:07;14.20;99.90
58983;DHT22;44771;49.982;8.560;2022-09-09T03:54:09;14.30;99.90
58983;DHT22;44771;49.982;8.560;2022-09-09T03:59:12;14.30;99.90
58983;DHT22;44771;49.982;8.560;2022-09-09T04:04:14;14.30;99.90
58983;DHT22;44771;49.982;8.560;2022-09-09T04:09:15;14.30;99.90
58983;DHT22;44771;49.982;8.560;2022-09-09T04:14:19;14.30;99.90
58983;DHT22;44771;49.982;8.560;2022-09-09T04:19:20;14.30;99.90
58983;DHT22;44771;49.982;8.560;2022-09-09T04:24:22;14.20;99.90
58983;DHT22;44771;49.982;8.560;2022-09-09T04:29:25;14.10;99.90
58983;DHT22;44771;49.982;8.560;2022-09-09T04:34:27;14.00;99.90
58983;DHT22;44771;49.982;8.560;2022-09-09T04:39:29;14.00;99.90
58983;DHT22;44771;49.982;8.560;2022-09-09T04:44:32;14.10;99.90
58983;DHT22;44771;49.982;8.560;2022-09-09T04:49:34;14.20;99.90
58983;DHT22;44771;49.982;8.560;2022-09-09T04:54:35;14.20;99.90
58983;DHT22;44771;49.982;8.560;2022-09-09T04:59:39;14.30;99.90
58983;DHT22;44771;49.982;8.560;2022-09-09T05:04:40;14.30;99.90
58983;DHT22;44771;49.982;8.560;2022-09-09T05:09:42;14.30;99.90
58983;DHT22;44771;49.982;8.560;2022-09-09T05:14:45;14.30;99.90
58983;DHT22;44771;49.982;8.560;2022-09-09T05:19:47;14.30;99.90
58983;DHT22;44771;49.982;8.560;2022-09-09T05:24:49;14.40;99.90
58983;DHT22;44771;49.982;8.560;2022-09-09T05:29:52;14.50;99.90
58983;DHT22;44771;49.982;8.560;2022-09-09T05:34:54;14.60;99.90
58983;DHT22;44771;49.982;8.560;2022-09-09T05:39:56;14.70;99.90
58983;DHT22;44771;49.982;8.560;2022-09-09T05:44:59;14.70;99.90
58983;DHT22;44771;49.982;8.560;2022-09-09T05:50:01;14.90;99.90
58983;DHT22;44771;49.982;8.560;2022-09-09T05:55:03;14.90;99.90
58983;DHT22;44771;49.982;8.560;2022-09-09T06:00:08;15.00;99.90
58983;DHT22;44771;49.982;8.560;2022-09-09T06:05:10;15.10;99.90
58983;DHT22;44771;49.982;8.560;2022-09-09T06:10:12;15.10;99.90
58983;DHT22;44771;49.982;8.560;2022-09-09T06:15:15;15.10;99.90
58983;DHT22;44771;49.982;8.560;2022-09-09T06:20:17;15.20;99.90
58983;DHT22;44771;49.982;8.560;2022-09-09T06:25:18;15.40;99.90
58983;DHT22;44771;49.982;8.560;2022-09-09T06:30:21;15.60;99.90
58983;DHT22;44771;49.982;8.560;2022-09-09T06:35:23;15.70;99.90
58983;DHT22;44771;49.982;8.560;2022-09-09T06:40:25;15.80;99.90
58983;DHT22;44771;49.982;8.560;2022-09-09T06:45:28;15.90;99.90
58983;DHT22;44771;49.982;8.560;2022-09-09T06:50:29;16.00;99.90
58983;DHT22;44771;49.982;8.560;2022-09-09T06:55:31;16.10;99.90
58983;DHT22;44771;49.982;8.560;2022-09-09T07:00:34;16.30;99.90
58983;DHT22;44771;49.982;8.560;2022-09-09T07:05:36;16.40;99.90
58983;DHT22;44771;49.982;8.560;2022-09-09T07:10:38;16.30;99.90
58983;DHT22;44771;49.982;8.560;2022-09-09T07:15:41;16.20;99.90
58983;DHT22;44771;49.982;8.560;2022-09-09T07:20:43;16.20;99.90
58983;DHT22;44771;49.982;8.560;2022-09-09T07:25:53;16.20;99.90
58983;DHT22;44771;49.982;8.560;2022-09-09T07:30:58;16.30;99.90
58983;DHT22;44771;49.982;8.560;2022-09-09T07:36:05;16.40;99.90
58983;DHT22;44771;49.982;8.560;2022-09-09T07:41:09;16.50;99.90
58983;DHT22;44771;49.982;8.560;2022-09-09T07:46:15;16.70;99.90
58983;DHT22;44771;49.982;8.560;2022-09-09T07:51:22;16.90;99.90
58983;DHT22;44771;49.982;8.560;2022-09-09T07:56:26;17.00;99.90
58983;DHT22;44771;49.982;8.560;2022-09-09T08:01:31;17.10;99.90
58983;DHT22;44771;49.982;8.560;2022-09-09T08:06:37;17.20;99.90
58983;DHT22;44771;49.982;8.560;2022-09-09T08:11:40;17.30;99.90
58983;DHT22;44771;49.982;8.560;2022-09-09T08:16:45;17.50;99.90
58983;DHT22;44771;49.982;8.560;2022-09-09T08:21:47;17.50;99.90
58983;DHT22;44771;49.982;8.560;2022-09-09T08:26:49;17.70;99.90
58983;DHT22;44771;49.982;8.560;2022-09-09T08:31:53;17.90;99.90
58983;DHT22;44771;49.982;8.560;2022-09-09T08:36:55;18.10;99.90
58983;DHT22;44771;49.982;8.560;2022-09-09T08:42:24;18.10;99.90
58983;DHT22;44771;49.982;8.560;2022-09-09T08:53:12;18.20;99.90
58983;DHT22;44771;49.982;8.560;2022-09-09T08:58:18;18.20;99.90
58983;DHT22;44771;49.982;8.560;2022-09-09T09:03:26;18.20;99.90
58983;DHT22;44771;49.982;8.560;2022-09-09T09:20:29;18.40;99.90
58983;DHT22;44771;49.982;8.560;2022-09-09T09:25:38;18.20;99.90
58983;DHT22;44771;49.982;8.560;2022-09-09T09:30:44;18.10;99.90
58983;DHT22;44771;49.982;8.560;2022-09-09T09:35:57;18.10;99.90
58983;DHT22;44771;49.982;8.560;2022-09-09T09:41:00;17.90;99.90
58983;DHT22;44771;49.982;8.560;2022-09-09T09:46:04;17.60;99.90
58983;DHT22;44771;49.982;8.560;2022-09-09T09:51:32;17.50;99.90
58983;DHT22;44771;49.982;8.560;2022-09-09T09:56:35;17.50;99.90
58983;DHT22;44771;49.982;8.560;2022-09-09T10:01:37;17.60;99.90
58983;DHT22;44771;49.982;8.560;2022-09-09T10:06:39;18.00;99.90
58983;DHT22;44771;49.982;8.560;2022-09-09T10:11:48;19.00;99.90
58983;DHT22;44771;49.982;8.560;2022-09-09T10:17:15;19.30;99.90
58983;DHT22;44771;49.982;8.560;2022-09-09T10:22:25;19.00;99.90
58983;DHT22;44771;49.982;8.560;2022-09-09T10:27:36;19.50;99.90
58983;DHT22;44771;49.982;8.560;2022-09-09T10:33:00;20.40;99.90
58983;DHT22;44771;49.982;8.560;2022-09-09T10:38:16;20.70;99.90
58983;DHT22;44771;49.982;8.560;2022-09-09T10:43:32;20.40;99.90
58983;DHT22;44771;49.982;8.560;2022-09-09T10:49:06;19.90;99.90
58983;DHT22;44771;49.982;8.560;2022-09-09T10:54:24;19.60;99.90
58983;DHT22;44771;49.982;8.560;2022-09-09T10:59:42;19.80;99.90
58983;DHT22;44771;49.982;8.560;2022-09-09T11:10:34;20.40;99.90
58983;DHT22;44771;49.982;8.560;2022-09-09T11:15:43;20.30;99.90
58983;DHT22;44771;49.982;8.560;2022-09-09T11:20:48;20.20;99.90
58983;DHT22;44771;49.982;8.560;2022-09-09T11:25:53;20.40;99.90
58983;DHT22;44771;49.982;8.560;2022-09-09T11:31:19;20.70;97.90
58983;DHT22;44771;49.982;8.560;2022-09-09T11:36:36;21.40;96.90
58983;DHT22;44771;49.982;8.560;2022-09-09T11:41:40;21.90;92.00
58983;DHT22;44771;49.982;8.560;2022-09-09T11:46:59;21.80;90.30
58983;DHT22;44771;49.982;8.560;2022-09-09T11:52:11;21.30;92.30
58983;DHT22;44771;49.982;8.560;2022-09-09T11:57:24;20.90;95.20
58983;DHT22;44771;49.982;8.560;2022-09-09T12:02:28;20.80;96.60
58983;DHT22;44771;49.982;8.560;2022-09-09T12:07:40;20.50;96.70
58983;DHT22;44771;49.982;8.560;2022-09-09T12:12:42;20.30;96.10
58983;DHT22;44771;49.982;8.560;2022-09-09T12:17:48;20.10;97.70
58983;DHT22;44771;49.982;8.560;2022-09-09T12:23:13;19.90;99.20
58983;DHT22;44771;49.982;8.560;2022-09-09T12:28:39;19.40;99.90
58983;DHT22;44771;49.982;8.560;2022-09-09T12:33:43;18.80;99.90
58983;DHT22;44771;49.982;8.560;2022-09-09T12:38:45;18.60;99.90
58983;DHT22;44771;49.982;8.560;2022-09-09T12:43:48;18.60;99.90
58983;DHT22;44771;49.982;8.560;2022-09-09T12:49:18;18.80;99.90
58983;DHT22;44771;49.982;8.560;2022-09-09T12:54:25;19.00;99.90
58983;DHT22;44771;49.982;8.560;2022-09-09T12:59:36;19.10;99.80
58983;DHT22;44771;49.982;8.560;2022-09-09T13:04:53;19.10;97.10
58983;DHT22;44771;49.982;8.560;2022-09-09T13:09:55;18.60;98.10
58983;DHT22;44771;49.982;8.560;2022-09-09T13:14:57;18.30;99.90
58983;DHT22;44771;49.982;8.560;2022-09-09T13:20:00;17.80;99.90
58983;DHT22;44771;49.982;8.560;2022-09-09T13:25:05;17.60;99.90
58983;DHT22;44771;49.982;8.560;2022-09-09T13:30:28;17.60;99.90
58983;DHT22;44771;49.982;8.560;2022-09-09T13:35:32;17.80;99.90
58983;DHT22;44771;49.982;8.560;2022-09-09T13:40:34;18.30;99.90
58983;DHT22;44771;49.982;8.560;2022-09-09T13:45:36;19.10;99.90
58983;DHT22;44771;49.982;8.560;2022-09-09T13:50:40;19.80;99.90
58983;DHT22;44771;49.982;8.560;2022-09-09T13:55:50;20.20;99.40
58983;DHT22;44771;49.982;8.560;2022-09-09T14:00:54;20.10;99.00
58983;DHT22;44771;49.982;8.560;2022-09-09T14:05:57;19.90;99.60
58983;DHT22;44771;49.982;8.560;2022-09-09T14:10:59;19.70;99.90
58983;DHT22;44771;49.982;8.560;2022-09-09T14:16:01;19.50;99.90
58983;DHT22;44771;49.982;8.560;2022-09-09T14:21:07;19.30;99.90
58983;DHT22;44771;49.982;8.560;2022-09-09T14:26:09;19.30;99.90
58983;DHT22;44771;49.982;8.560;2022-09-09T14:31:11;19.20;99.90
58983;DHT22;44771;49.982;8.560;2022-09-09T14:36:14;19.30;99.90
58983;DHT22;44771;49.982;8.560;2022-09-09T14:41:17;19.00;99.90
58983;DHT22;44771;49.982;8.560;2022-09-09T14:46:19;18.80;99.90
58983;DHT22;44771;49.982;8.560;2022-09-09T14:51:24;18.80;99.90
58983;DHT22;44771;49.982;8.560;2022-09-09T14:56:27;18.70;99.90
58983;DHT22;44771;49.982;8.560;2022-09-09T15:01:30;18.60;99.90
58983;DHT22;44771;49.982;8.560;2022-09-09T15:06:37;18.50;99.90
58983;DHT22;44771;49.982;8.560;2022-09-09T15:11:39;18.30;99.90
58983;DHT22;44771;49.982;8.560;2022-09-09T15:16:41;18.20;99.90
58983;DHT22;44771;49.982;8.560;2022-09-09T15:21:44;18.10;99.90
58983;DHT22;44771;49.982;8.560;2022-09-09T15:26:46;18.20;99.90
58983;DHT22;44771;49.982;8.560;2022-09-09T15:31:47;18.40;99.90
58983;DHT22;44771;49.982;8.560;2022-09-09T15:36:51;18.50;99.90
58983;DHT22;44771;49.982;8.560;2022-09-09T15:41:52;18.60;99.90
58983;DHT22;44771;49.982;8.560;2022-09-09T15:46:54;18.60;99.90
58983;DHT22;44771;49.982;8.560;2022-09-09T15:51:59;18.50;99.90
58983;DHT22;44771;49.982;8.560;2022-09-09T15:57:03;18.50;99.90
58983;DHT22;44771;49.982;8.560;2022-09-09T16:02:05;18.50;99.90
58983;DHT22;44771;49.982;8.560;2022-09-09T16:07:08;18.50;99.90
58983;DHT22;44771;49.982;8.560;2022-09-09T16:12:10;18.40;99.90
58983;DHT22;44771;49.982;8.560;2022-09-09T16:17:12;18.40;99.90
58983;DHT22;44771;49.982;8.560;2022-09-09T16:22:15;18.40;99.90
58983;DHT22;44771;49.982;8.560;2022-09-09T16:27:16;18.40;99.90
58983;DHT22;44771;49.982;8.560;2022-09-09T16:32:18;18.30;99.90
58983;DHT22;44771;49.982;8.560;2022-09-09T16:37:21;18.30;99.90
58983;DHT22;44771;49.982;8.560;2022-09-09T16:42:23;18.20;99.90
58983;DHT22;44771;49.982;8.560;2022-09-09T16:47:25;18.00;99.90
58983;DHT22;44771;49.982;8.560;2022-09-09T16:52:28;18.00;99.90
58983;DHT22;44771;49.982;8.560;2022-09-09T16:57:29;18.00;99.90
58983;DHT22;44771;49.982;8.560;2022-09-09T17:02:31;17.90;99.90
58983;DHT22;44771;49.982;8.560;2022-09-09T17:07:34;17.90;99.90
58983;DHT22;44771;49.982;8.560;2022-09-09T17:12:36;17.80;99.90
58983;DHT22;44771;49.982;8.560;2022-09-09T17:17:42;17.80;99.90
58983;DHT22;44771;49.982;8.560;2022-09-09T17:22:45;17.80;99.90
58983;DHT22;44771;49.982;8.560;2022-09-09T17:27:47;17.70;99.90
58983;DHT22;44771;49.982;8.560;2022-09-09T17:32:49;17.60;99.90
58983;DHT22;44771;49.982;8.560;2022-09-09T17:37:53;17.60;99.90
58983;DHT22;44771;49.982;8.560;2022-09-09T17:42:56;17.20;99.90
58983;DHT22;44771;49.982;8.560;2022-09-09T17:47:58;16.60;99.90
58983;DHT22;44771;49.982;8.560;2022-09-09T17:53:01;16.10;99.90
58983;DHT22;44771;49.982;8.560;2022-09-09T17:58:03;15.80;99.90
58983;DHT22;44771;49.982;8.560;2022-09-09T18:03:04;15.60;99.90
58983;DHT22;44771;49.982;8.560;2022-09-09T18:08:08;15.50;99.90
58983;DHT22;44771;49.982;8.560;2022-09-09T18:13:10;15.40;99.90
58983;DHT22;44771;49.982;8.560;2022-09-09T18:18:11;15.30;99.90
58983;DHT22;44771;49.982;8.560;2022-09-09T18:23:14;15.30;99.90
58983;DHT22;44771;49.982;8.560;2022-09-09T18:28:16;15.20;99.90
58983;DHT22;44771;49.982;8.560;2022-09-09T18:33:21;15.20;99.90
58983;DHT22;44771;49.982;8.560;2022-09-09T18:38:24;15.20;99.90
58983;DHT22;44771;49.982;8.560;2022-09-09T18:43:26;15.20;99.90
58983;DHT22;44771;49.982;8.560;2022-09-09T18:48:28;15.10;99.90
58983;DHT22;44771;49.982;8.560;2022-09-09T18:53:31;15.10;99.90
58983;DHT22;44771;49.982;8.560;2022-09-09T18:58:34;15.10;99.90
58983;DHT22;44771;49.982;8.560;2022-09-09T19:03:36;15.10;99.90
58983;DHT22;44771;49.982;8.560;2022-09-09T19:08:41;15.00;99.90
58983;DHT22;44771;49.982;8.560;2022-09-09T19:13:43;14.90;99.90
58983;DHT22;44771;49.982;8.560;2022-09-09T19:18:45;15.00;99.90
58983;DHT22;44771;49.982;8.560;2022-09-09T19:23:57;14.90;99.90
58983;DHT22;44771;49.982;8.560;2022-09-09T19:29:00;14.90;99.90
58983;DHT22;44771;49.982;8.560;2022-09-09T19:34:02;14.90;99.90
58983;DHT22;44771;49.982;8.560;2022-09-09T19:39:06;14.90;99.90
58983;DHT22;44771;49.982;8.560;2022-09-09T19:44:11;14.80;99.90
58983;DHT22;44771;49.982;8.560;2022-09-09T19:49:15;14.80;99.90
58983;DHT22;44771;49.982;8.560;2022-09-09T19:54:18;14.70;99.90
58983;DHT22;44771;49.982;8.560;2022-09-09T19:59:20;14.60;99.90
58983;DHT22;44771;49.982;8.560;2022-09-09T20:04:22;14.50;99.90
58983;DHT22;44771;49.982;8.560;2022-09-09T20:09:25;14.40;99.90
58983;DHT22;44771;49.982;8.560;2022-09-09T20:14:27;14.30;99.90
58983;DHT22;44771;49.982;8.560;2022-09-09T20:19:28;14.20;99.90
58983;DHT22;44771;49.982;8.560;2022-09-09T20:24:32;14.10;99.90
58983;DHT22;44771;49.982;8.560;2022-09-09T20:29:34;14.00;99.90
58983;DHT22;44771;49.982;8.560;2022-09-09T20:34:36;14.00;99.90
58983;DHT22;44771;49.982;8.560;2022-09-09T20:39:39;14.00;99.90
58983;DHT22;44771;49.982;8.560;2022-09-09T20:44:41;13.90;99.90
58983;DHT22;44771;49.982;8.560;2022-09-09T20:49:43;13.90;99.90
58983;DHT22;44771;49.982;8.560;2022-09-09T20:54:46;13.80;99.90
58983;DHT22;44771;49.982;8.560;2022-09-09T20:59:48;13.70;99.90
58983;DHT22;44771;49.982;8.560;2022-09-09T21:04:49;13.70;99.90
58983;DHT22;44771;49.982;8.560;2022-09-09T21:09:53;13.60;99.90
58983;DHT22;44771;49.982;8.560;2022-09-09T21:14:54;13.50;99.90
58983;DHT22;44771;49.982;8.560;2022-09-09T21:19:56;13.40;99.90
58983;DHT22;44771;49.982;8.560;2022-09-09T21:24:59;13.40;99.90
58983;DHT22;44771;49.982;8.560;2022-09-09T21:30:01;13.40;99.90
58983;DHT22;44771;49.982;8.560;2022-09-09T21:35:03;13.40;99.90
58983;DHT22;44771;49.982;8.560;2022-09-09T21:40:08;13.30;99.90
58983;DHT22;44771;49.982;8.560;2022-09-09T21:45:10;13.30;99.90
58983;DHT22;44771;49.982;8.560;2022-09-09T21:50:12;13.30;99.90
58983;DHT22;44771;49.982;8.560;2022-09-09T21:55:15;13.30;99.90
58983;DHT22;44771;49.982;8.560;2022-09-09T22:00:17;13.20;99.90
58983;DHT22;44771;49.982;8.560;2022-09-09T22:05:19;13.20;99.90
58983;DHT22;44771;49.982;8.560;2022-09-09T22:10:22;13.20;99.90
58983;DHT22;44771;49.982;8.560;2022-09-09T22:15:23;13.10;99.90
58983;DHT22;44771;49.982;8.560;2022-09-09T22:20:25;13.10;99.90
58983;DHT22;44771;49.982;8.560;2022-09-09T22:25:31;13.00;99.90
58983;DHT22;44771;49.982;8.560;2022-09-09T22:30:33;12.80;99.90
58983;DHT22;44771;49.982;8.560;2022-09-09T22:35:38;12.70;99.90
58983;DHT22;44771;49.982;8.560;2022-09-09T22:40:41;12.60;99.90
58983;DHT22;44771;49.982;8.560;2022-09-09T22:45:43;12.70;99.90
58983;DHT22;44771;49.982;8.560;2022-09-09T22:50:45;12.80;99.90
58983;DHT22;44771;49.982;8.560;2022-09-09T22:55:56;12.80;99.90
58983;DHT22;44771;49.982;8.560;2022-09-09T23:00:58;12.80;99.90
58983;DHT22;44771;49.982;8.560;2022-09-09T23:06:01;12.70;99.90
58983;DHT22;44771;49.982;8.560;2022-09-09T23:11:06;12.60;99.90
58983;DHT22;44771;49.982;8.560;2022-09-09T23:16:09;12.50;99.90
58983;DHT22;44771;49.982;8.560;2022-09-09T23:21:12;12.50;99.90
58983;DHT22;44771;49.982;8.560;2022-09-09T23:26:16;12.50;99.90
58983;DHT22;44771;49.982;8.560;2022-09-09T23:31:20;12.40;99.90
58983;DHT22;44771;49.982;8.560;2022-09-09T23:36:23;12.40;99.90
58983;DHT22;44771;49.982;8.560;2022-09-09T23:41:26;12.40;99.90
58983;DHT22;44771;49.982;8.560;2022-09-09T23:46:30;12.30;99.90
58983;DHT22;44771;49.982;8.560;2022-09-09T23:51:33;12.30;99.90
58983;DHT22;44771;49.982;8.560;2022-09-09T23:56:37;12.30;99.90
